Time;durP1;ratioP1;P1;durP2;ratioP2;P2;SDS_P1;SDS_P2;PMS_P1;PMS_P2;Temp;Humidity;BMP_temperature;BMP_pressure;BME280_temperature;BME280_humidity;BME280_pressure;Samples;Min_cycle;Max_cycle;Signal;HPM_P1;HPM_P2
2023/07/12 00:00:17;;;;;;;6.50;4.40;;;;;;;;;;5120497;28;20521;-64
2023/07/12 00:02:44;;;;;;;7.73;4.03;;;;;;;;;;5117952;28;20513;-64
2023/07/12 00:05:11;;;;;;;6.00;4.20;;;;;;;;;;5120581;28;20477;-64
2023/07/12 00:07:37;;;;;;;5.70;4.60;;;;;;;;;;5118470;28;20526;-64
2023/07/12 00:10:12;;;;;;;9.00;4.93;;;;;;;;;;5121386;28;20469;-64
2023/07/12 00:12:38;;;;;;;7.43;5.73;;;;;;;;;;5110350;28;20470;-65
2023/07/12 00:15:07;;;;;;;5.87;4.53;;;;;;;;;;5120378;28;20537;-64
2023/07/12 00:17:34;;;;;;;6.10;4.60;;;;;;;;;;5120897;28;20515;-64
2023/07/12 00:20:03;;;;;;;9.90;4.90;;;;;;;;;;5120458;28;20489;-65
2023/07/12 00:22:29;;;;;;;7.53;4.50;;;;;;;;;;5138867;27;21133;-65
2023/07/12 00:24:56;;;;;;;7.83;4.90;;;;;;;;;;5133713;27;20927;-64
2023/07/12 00:27:22;;;;;;;7.10;4.50;;;;;;;;;;5138028;27;20441;-65
2023/07/12 00:29:48;;;;;;;10.33;5.27;;;;;;;;;;5136626;27;20489;-64
2023/07/12 00:32:15;;;;;;;7.97;5.07;;;;;;;;;;5130632;27;20485;-64
2023/07/12 00:34:41;;;;;;;7.30;5.13;;;;;;;;;;5140409;27;20969;-63
2023/07/12 00:37:14;;;;;;;9.07;5.10;;;;;;;;;;5136514;27;20469;-64
2023/07/12 00:39:40;;;;;;;9.80;5.70;;;;;;;;;;5137407;27;20510;-64
2023/07/12 00:42:12;;;;;;;11.17;5.70;;;;;;;;;;5140335;27;20483;-64
2023/07/12 00:44:43;;;;;;;8.10;6.40;;;;;;;;;;5140187;27;20525;-63
2023/07/12 00:47:12;;;;;;;10.60;6.00;;;;;;;;;;5141551;27;20473;-63
2023/07/12 00:49:38;;;;;;;8.10;5.10;;;;;;;;;;5140984;27;20516;-63
2023/07/12 00:52:05;;;;;;;11.47;6.07;;;;;;;;;;5140281;27;20481;-64
2023/07/12 00:54:47;;;;;;;11.20;4.90;;;;;;;;;;5142301;27;20754;-64
2023/07/12 00:57:14;;;;;;;9.03;4.90;;;;;;;;;;5136197;27;20884;-63
2023/07/12 00:59:41;;;;;;;6.73;4.30;;;;;;;;;;5140160;27;20508;-64
2023/07/12 01:02:08;;;;;;;8.63;5.20;;;;;;;;;;5140275;27;20484;-63
2023/07/12 01:04:37;;;;;;;12.30;5.47;;;;;;;;;;5140891;27;20488;-62
2023/07/12 01:07:03;;;;;;;9.40;5.17;;;;;;;;;;5140016;27;20491;-62
2023/07/12 01:09:30;;;;;;;6.20;4.60;;;;;;;;;;5144523;27;20500;-64
2023/07/12 01:11:57;;;;;;;5.30;4.17;;;;;;;;;;5140290;27;20988;-62
2023/07/12 01:14:25;;;;;;;7.40;4.60;;;;;;;;;;5139517;27;20453;-62
2023/07/12 01:16:54;;;;;;;5.77;4.40;;;;;;;;;;5141677;27;20921;-62
2023/07/12 01:19:21;;;;;;;7.67;5.00;;;;;;;;;;5140070;27;20445;-63
2023/07/12 01:21:50;;;;;;;5.30;3.70;;;;;;;;;;5140666;27;20481;-62
2023/07/12 01:24:17;;;;;;;5.40;3.50;;;;;;;;;;5140253;27;20481;-62
2023/07/12 01:26:45;;;;;;;3.90;2.83;;;;;;;;;;5141691;27;20465;-62
2023/07/12 01:29:11;;;;;;;4.43;3.07;;;;;;;;;;5138520;27;21045;-62
2023/07/12 01:31:39;;;;;;;3.33;3.00;;;;;;;;;;5140066;27;20465;-62
2023/07/12 01:34:05;;;;;;;2.90;2.00;;;;;;;;;;5135180;27;20492;-62
2023/07/12 01:36:32;;;;;;;3.57;2.40;;;;;;;;;;5139705;27;20453;-62
2023/07/12 01:39:00;;;;;;;1.90;1.77;;;;;;;;;;5139914;27;20552;-61
2023/07/12 01:41:27;;;;;;;3.20;2.40;;;;;;;;;;5139004;27;20505;-62
2023/07/12 01:43:54;;;;;;;2.50;2.30;;;;;;;;;;5145192;27;20476;-62
2023/07/12 01:46:21;;;;;;;2.80;2.10;;;;;;;;;;5139977;27;20960;-62
2023/07/12 01:48:47;;;;;;;3.27;2.70;;;;;;;;;;5139963;28;20523;-62
2023/07/12 01:51:14;;;;;;;2.70;2.10;;;;;;;;;;5140395;27;20495;-62
2023/07/12 01:53:40;;;;;;;5.77;3.10;;;;;;;;;;5140427;28;20453;-62
2023/07/12 01:56:08;;;;;;;3.57;1.93;;;;;;;;;;5139847;28;20449;-62
2023/07/12 01:58:35;;;;;;;4.30;2.50;;;;;;;;;;5139548;27;20484;-62
2023/07/12 02:01:01;;;;;;;3.80;2.03;;;;;;;;;;5139761;28;20507;-62
2023/07/12 02:03:28;;;;;;;4.83;2.70;;;;;;;;;;5140036;28;20445;-62
2023/07/12 02:05:55;;;;;;;3.23;2.00;;;;;;;;;;5139210;28;20516;-63
2023/07/12 02:08:21;;;;;;;2.40;1.90;;;;;;;;;;5139356;28;20489;-63
2023/07/12 02:10:48;;;;;;;2.57;2.00;;;;;;;;;;5140136;27;20452;-62
2023/07/12 02:13:16;;;;;;;2.07;1.67;;;;;;;;;;5138412;28;20479;-63
2023/07/12 02:15:43;;;;;;;2.13;1.93;;;;;;;;;;5139813;28;20549;-64
2023/07/12 02:18:10;;;;;;;2.53;1.70;;;;;;;;;;5139530;28;20515;-63
2023/07/12 02:20:36;;;;;;;2.23;1.97;;;;;;;;;;5139627;28;21045;-63
2023/07/12 02:23:03;;;;;;;2.17;1.97;;;;;;;;;;5139303;27;20472;-63
2023/07/12 02:25:29;;;;;;;3.13;1.90;;;;;;;;;;5139829;27;20473;-63
2023/07/12 02:27:55;;;;;;;3.30;2.10;;;;;;;;;;5139429;28;20448;-63
2023/07/12 02:30:24;;;;;;;2.80;2.13;;;;;;;;;;5139448;28;20441;-63
2023/07/12 02:32:51;;;;;;;2.90;1.90;;;;;;;;;;5139572;28;20464;-63
2023/07/12 02:35:18;;;;;;;2.53;1.90;;;;;;;;;;5139363;28;20488;-62
2023/07/12 02:37:45;;;;;;;3.73;2.40;;;;;;;;;;5139524;28;20516;-62
2023/07/12 02:40:12;;;;;;;2.33;1.80;;;;;;;;;;5125769;28;20488;-63
2023/07/12 02:42:38;;;;;;;3.23;1.80;;;;;;;;;;5127235;28;20803;-63
2023/07/12 02:45:06;;;;;;;2.17;1.90;;;;;;;;;;5115419;28;20477;-63
2023/07/12 02:47:33;;;;;;;3.60;2.40;;;;;;;;;;5118961;28;20497;-63
2023/07/12 02:50:01;;;;;;;2.73;1.93;;;;;;;;;;5118967;28;20474;-63
2023/07/12 02:52:27;;;;;;;2.00;1.90;;;;;;;;;;5118806;28;20450;-63
2023/07/12 02:54:54;;;;;;;3.47;2.40;;;;;;;;;;5119069;28;20538;-63
2023/07/12 02:57:20;;;;;;;2.50;2.03;;;;;;;;;;5119996;28;20513;-63
2023/07/12 02:59:46;;;;;;;2.77;2.20;;;;;;;;;;5118244;28;20484;-63
2023/07/12 03:02:13;;;;;;;2.73;2.20;;;;;;;;;;5118715;28;20478;-63
2023/07/12 03:04:41;;;;;;;3.90;2.33;;;;;;;;;;5120537;28;20450;-64
2023/07/12 03:07:07;;;;;;;3.13;2.17;;;;;;;;;;5121903;28;20474;-63
2023/07/12 03:09:34;;;;;;;2.90;2.60;;;;;;;;;;5122086;28;20535;-63
2023/07/12 03:12:00;;;;;;;3.70;2.40;;;;;;;;;;5131130;27;20953;-63
2023/07/12 03:14:26;;;;;;;4.20;2.10;;;;;;;;;;5126052;27;20494;-62
2023/07/12 03:16:53;;;;;;;2.73;2.50;;;;;;;;;;5122348;28;21313;-63
2023/07/12 03:19:19;;;;;;;2.93;2.07;;;;;;;;;;5120385;28;20542;-63
2023/07/12 03:21:47;;;;;;;3.13;2.13;;;;;;;;;;5121859;28;20493;-63
2023/07/12 03:24:14;;;;;;;5.20;2.47;;;;;;;;;;5121890;27;20509;-63
2023/07/12 03:26:40;;;;;;;5.83;2.30;;;;;;;;;;5122399;28;20512;-63
2023/07/12 03:29:07;;;;;;;2.50;2.00;;;;;;;;;;5121473;28;20518;-62
2023/07/12 03:31:33;;;;;;;3.53;2.80;;;;;;;;;;5122029;28;20536;-63
2023/07/12 03:34:00;;;;;;;2.93;2.40;;;;;;;;;;5121548;28;20585;-62
2023/07/12 03:36:28;;;;;;;5.13;2.47;;;;;;;;;;5121097;28;20450;-62
2023/07/12 03:38:56;;;;;;;3.87;2.83;;;;;;;;;;5118484;28;21218;-63
2023/07/12 03:41:23;;;;;;;4.53;2.50;;;;;;;;;;5137610;27;20473;-62
2023/07/12 03:43:49;;;;;;;3.17;2.10;;;;;;;;;;5134491;27;20481;-62
2023/07/12 03:46:16;;;;;;;3.73;2.60;;;;;;;;;;5137325;27;20535;-62
2023/07/12 03:48:42;;;;;;;4.10;2.20;;;;;;;;;;5138267;27;20544;-62
2023/07/12 03:51:09;;;;;;;3.27;2.50;;;;;;;;;;5129772;27;20485;-62
2023/07/12 03:53:35;;;;;;;5.47;2.67;;;;;;;;;;5137279;27;20869;-62
2023/07/12 03:56:03;;;;;;;1.97;1.77;;;;;;;;;;5132084;27;20789;-62
2023/07/12 03:58:31;;;;;;;4.33;2.30;;;;;;;;;;5127537;27;21101;-64
2023/07/12 04:01:03;;;;;;;3.67;2.50;;;;;;;;;;5134063;27;21083;-63
2023/07/12 04:03:30;;;;;;;2.90;2.17;;;;;;;;;;5128972;27;20482;-64
2023/07/12 04:05:57;;;;;;;3.47;1.97;;;;;;;;;;5140955;27;20477;-64
2023/07/12 04:08:23;;;;;;;2.90;1.93;;;;;;;;;;5143498;27;21009;-63
2023/07/12 04:10:53;;;;;;;4.07;2.37;;;;;;;;;;5135066;27;20507;-64
2023/07/12 04:13:21;;;;;;;3.40;2.27;;;;;;;;;;5129238;27;20864;-63
2023/07/12 04:15:47;;;;;;;2.60;1.90;;;;;;;;;;5139425;27;21193;-64
2023/07/12 04:18:14;;;;;;;9.20;2.90;;;;;;;;;;5134437;27;20484;-63
2023/07/12 04:20:40;;;;;;;5.40;2.40;;;;;;;;;;5131241;27;20532;-63
2023/07/12 04:23:07;;;;;;;3.90;2.27;;;;;;;;;;5134504;27;20458;-63
2023/07/12 04:25:33;;;;;;;3.47;2.17;;;;;;;;;;5137095;27;20485;-63
2023/07/12 04:28:00;;;;;;;4.40;2.37;;;;;;;;;;5133410;27;20480;-63
2023/07/12 04:30:28;;;;;;;4.07;1.97;;;;;;;;;;5138682;27;20567;-64
2023/07/12 04:32:54;;;;;;;3.63;2.20;;;;;;;;;;5141145;27;20468;-63
2023/07/12 04:35:20;;;;;;;3.43;2.37;;;;;;;;;;5140521;27;20492;-63
2023/07/12 04:37:47;;;;;;;9.50;3.03;;;;;;;;;;5141786;27;20958;-62
2023/07/12 04:40:13;;;;;;;3.43;2.50;;;;;;;;;;5138783;27;20928;-62
2023/07/12 04:42:40;;;;;;;3.43;2.30;;;;;;;;;;5141339;27;20483;-62
2023/07/12 04:45:07;;;;;;;3.10;1.83;;;;;;;;;;5131629;27;20522;-62
2023/07/12 04:47:35;;;;;;;5.00;2.00;;;;;;;;;;5134769;27;20931;-62
2023/07/12 04:50:01;;;;;;;5.33;2.13;;;;;;;;;;5140868;27;20541;-62
2023/07/12 04:52:28;;;;;;;3.73;2.07;;;;;;;;;;5140298;27;20540;-63
2023/07/12 04:54:57;;;;;;;2.53;1.80;;;;;;;;;;5134806;27;20449;-63
2023/07/12 04:57:23;;;;;;;2.90;2.03;;;;;;;;;;5134909;27;20446;-63
2023/07/12 04:59:50;;;;;;;3.80;1.60;;;;;;;;;;5134602;27;20481;-63
2023/07/12 05:02:16;;;;;;;3.60;1.77;;;;;;;;;;5131357;27;20458;-63
2023/07/12 05:04:44;;;;;;;4.80;2.10;;;;;;;;;;5143447;27;20453;-63
2023/07/12 05:07:10;;;;;;;2.50;1.80;;;;;;;;;;5135540;27;20457;-63
2023/07/12 05:09:37;;;;;;;2.03;1.60;;;;;;;;;;5135409;27;21171;-63
2023/07/12 05:12:04;;;;;;;2.70;1.53;;;;;;;;;;5133059;27;21055;-63
2023/07/12 05:14:30;;;;;;;5.80;2.00;;;;;;;;;;5131744;27;20491;-63
2023/07/12 05:16:57;;;;;;;3.10;1.50;;;;;;;;;;5136869;27;20505;-63
2023/07/12 05:19:23;;;;;;;3.07;1.50;;;;;;;;;;5127089;27;20464;-63
2023/07/12 05:21:51;;;;;;;2.17;1.43;;;;;;;;;;5134212;27;20481;-63
2023/07/12 05:24:17;;;;;;;2.80;1.50;;;;;;;;;;5130980;27;20798;-63
2023/07/12 05:26:44;;;;;;;2.60;1.10;;;;;;;;;;5132310;27;20469;-64
2023/07/12 05:29:12;;;;;;;2.40;1.23;;;;;;;;;;5129751;27;20548;-64
2023/07/12 05:31:39;;;;;;;2.50;1.37;;;;;;;;;;5135312;27;20460;-62
2023/07/12 05:34:05;;;;;;;4.47;1.77;;;;;;;;;;5130120;27;20481;-63
2023/07/12 05:36:31;;;;;;;3.03;1.50;;;;;;;;;;5137916;27;20980;-63
2023/07/12 05:38:59;;;;;;;3.00;1.40;;;;;;;;;;5133762;27;20532;-63
2023/07/12 05:41:26;;;;;;;2.57;1.50;;;;;;;;;;5135056;27;20492;-61
2023/07/12 05:43:52;;;;;;;4.23;1.30;;;;;;;;;;5138815;27;20529;-61
2023/07/12 05:46:18;;;;;;;2.63;1.50;;;;;;;;;;5135513;27;20457;-62
2023/07/12 05:48:48;;;;;;;1.80;1.20;;;;;;;;;;5136424;27;21002;-62
2023/07/12 05:51:14;;;;;;;2.00;1.47;;;;;;;;;;5130851;28;20472;-62
2023/07/12 05:53:40;;;;;;;1.97;1.20;;;;;;;;;;5132361;28;20449;-62
2023/07/12 05:56:08;;;;;;;3.20;1.90;;;;;;;;;;5128359;28;20603;-63
2023/07/12 05:58:35;;;;;;;3.60;1.57;;;;;;;;;;5130919;28;20449;-63
2023/07/12 06:01:02;;;;;;;7.43;1.50;;;;;;;;;;5131609;27;20450;-63
2023/07/12 06:03:30;;;;;;;3.80;1.70;;;;;;;;;;5128476;28;20450;-63
2023/07/12 06:05:57;;;;;;;4.73;1.20;;;;;;;;;;5132410;28;20507;-63
2023/07/12 06:08:23;;;;;;;4.27;1.60;;;;;;;;;;5137147;28;20479;-62
2023/07/12 06:10:50;;;;;;;5.87;1.63;;;;;;;;;;5129791;28;20874;-63
2023/07/12 06:13:18;;;;;;;4.50;1.80;;;;;;;;;;5134426;27;20506;-62
2023/07/12 06:15:44;;;;;;;2.87;1.30;;;;;;;;;;5139064;28;20453;-63
2023/07/12 06:18:11;;;;;;;4.70;1.23;;;;;;;;;;5134651;27;20505;-63
2023/07/12 06:20:37;;;;;;;7.57;1.60;;;;;;;;;;5138841;28;20507;-65
2023/07/12 06:23:03;;;;;;;2.90;1.30;;;;;;;;;;5139596;28;20479;-65
2023/07/12 06:25:30;;;;;;;5.23;1.30;;;;;;;;;;5149843;27;20686;-65
2023/07/12 06:27:57;;;;;;;6.33;1.20;;;;;;;;;;5131729;28;20487;-65
2023/07/12 06:30:24;;;;;;;3.67;1.23;;;;;;;;;;5132633;28;20550;-64
2023/07/12 06:32:51;;;;;;;2.57;1.30;;;;;;;;;;5125696;28;20464;-64
2023/07/12 06:35:17;;;;;;;2.80;0.90;;;;;;;;;;5130063;27;20544;-65
2023/07/12 06:37:44;;;;;;;2.53;1.07;;;;;;;;;;5136539;27;20521;-64
2023/07/12 06:40:10;;;;;;;3.13;1.00;;;;;;;;;;5142579;27;20571;-64
2023/07/12 06:42:37;;;;;;;3.67;1.40;;;;;;;;;;5143060;27;20437;-64
2023/07/12 06:45:03;;;;;;;3.90;1.90;;;;;;;;;;5141284;27;20489;-64
2023/07/12 06:47:32;;;;;;;2.60;1.30;;;;;;;;;;5143211;27;20480;-64
2023/07/12 06:49:58;;;;;;;3.07;1.57;;;;;;;;;;5137541;27;20512;-65
2023/07/12 06:52:25;;;;;;;4.13;1.90;;;;;;;;;;5141501;27;20533;-64
2023/07/12 06:54:51;;;;;;;4.53;1.60;;;;;;;;;;5136295;27;20536;-64
2023/07/12 06:57:18;;;;;;;2.23;1.30;;;;;;;;;;5125575;27;20518;-64
2023/07/12 06:59:45;;;;;;;3.53;1.50;;;;;;;;;;5142030;27;20473;-64
2023/07/12 07:02:11;;;;;;;3.80;1.70;;;;;;;;;;5147505;27;20511;-64
2023/07/12 07:04:39;;;;;;;4.70;1.70;;;;;;;;;;5142208;27;20445;-64
2023/07/12 07:07:05;;;;;;;2.87;1.60;;;;;;;;;;5139176;27;20460;-64
2023/07/12 07:09:33;;;;;;;8.00;2.20;;;;;;;;;;5141492;27;20473;-64
2023/07/12 07:11:59;;;;;;;2.90;1.93;;;;;;;;;;5134362;27;20448;-64
2023/07/12 07:14:26;;;;;;;3.70;2.40;;;;;;;;;;5136439;27;20453;-64
2023/07/12 07:16:52;;;;;;;5.50;2.13;;;;;;;;;;5125540;27;20449;-64
2023/07/12 07:19:19;;;;;;;5.23;2.27;;;;;;;;;;5132113;27;20498;-64
2023/07/12 07:21:50;;;;;;;3.40;2.30;;;;;;;;;;5140703;27;20480;-64
2023/07/12 07:24:16;;;;;;;3.10;1.70;;;;;;;;;;5138360;27;20440;-64
2023/07/12 07:26:43;;;;;;;4.00;1.70;;;;;;;;;;5131050;27;20442;-64
2023/07/12 07:29:09;;;;;;;6.17;2.17;;;;;;;;;;5138903;27;20478;-64
2023/07/12 07:31:36;;;;;;;4.27;2.00;;;;;;;;;;5131352;27;20512;-64
2023/07/12 07:34:02;;;;;;;2.00;1.73;;;;;;;;;;5133465;27;20449;-64
2023/07/12 07:36:29;;;;;;;3.23;2.00;;;;;;;;;;5141349;27;20556;-64
2023/07/12 07:38:57;;;;;;;3.53;1.77;;;;;;;;;;5134132;27;20465;-64
2023/07/12 07:41:23;;;;;;;4.80;2.27;;;;;;;;;;5132890;27;20484;-64
2023/07/12 07:43:50;;;;;;;3.80;1.77;;;;;;;;;;5130123;27;20541;-64
2023/07/12 07:46:16;;;;;;;2.33;1.73;;;;;;;;;;5128307;27;20747;-64
2023/07/12 07:48:43;;;;;;;2.60;1.90;;;;;;;;;;5132642;27;20445;-64
2023/07/12 07:51:09;;;;;;;3.50;2.20;;;;;;;;;;5138031;27;21214;-64
2023/07/12 07:53:36;;;;;;;2.57;2.10;;;;;;;;;;5134281;27;20576;-64
2023/07/12 07:56:04;;;;;;;4.90;2.40;;;;;;;;;;5133398;27;20458;-64
2023/07/12 07:58:31;;;;;;;3.40;2.60;;;;;;;;;;5134225;27;20449;-63
2023/07/12 08:00:57;;;;;;;3.57;2.53;;;;;;;;;;5134344;27;20673;-64
2023/07/12 08:03:24;;;;;;;4.50;2.30;;;;;;;;;;5126821;27;20546;-64
2023/07/12 08:05:50;;;;;;;4.50;3.20;;;;;;;;;;5133483;27;20523;-63
2023/07/12 08:08:16;;;;;;;5.97;3.10;;;;;;;;;;5138782;27;20520;-64
2023/07/12 08:10:43;;;;;;;4.57;2.70;;;;;;;;;;5128460;27;20481;-64
2023/07/12 08:13:12;;;;;;;3.83;2.80;;;;;;;;;;5131401;27;20473;-63
2023/07/12 08:15:38;;;;;;;3.40;2.80;;;;;;;;;;5130079;27;20536;-64
2023/07/12 08:18:04;;;;;;;3.70;3.00;;;;;;;;;;5133189;27;20537;-63
2023/07/12 08:20:31;;;;;;;3.60;2.70;;;;;;;;;;5128319;27;20458;-64
2023/07/12 08:22:58;;;;;;;4.60;2.50;;;;;;;;;;5136478;27;20457;-64
2023/07/12 08:25:25;;;;;;;2.97;2.63;;;;;;;;;;5123307;27;20454;-64
2023/07/12 08:27:51;;;;;;;3.07;2.20;;;;;;;;;;5125275;27;20449;-64
2023/07/12 08:30:19;;;;;;;4.10;2.67;;;;;;;;;;5133597;27;20516;-64
2023/07/12 08:32:46;;;;;;;3.50;3.20;;;;;;;;;;5140996;27;20492;-64
2023/07/12 08:35:12;;;;;;;4.87;2.60;;;;;;;;;;5131972;27;20494;-64
2023/07/12 08:37:38;;;;;;;3.73;2.70;;;;;;;;;;5138978;27;20540;-64
2023/07/12 08:40:05;;;;;;;4.90;2.30;;;;;;;;;;5134906;27;20742;-64
2023/07/12 08:42:34;;;;;;;4.90;2.70;;;;;;;;;;5137538;27;20454;-64
2023/07/12 08:45:02;;;;;;;4.43;2.57;;;;;;;;;;5130088;27;20996;-64
2023/07/12 08:47:32;;;;;;;5.80;2.50;;;;;;;;;;5141668;27;20484;-64
2023/07/12 08:49:59;;;;;;;3.03;2.37;;;;;;;;;;5144523;27;20520;-64
2023/07/12 08:52:28;;;;;;;3.57;1.90;;;;;;;;;;5131919;27;20834;-64
2023/07/12 08:54:56;;;;;;;5.13;2.50;;;;;;;;;;5129055;27;20536;-64
2023/07/12 08:57:23;;;;;;;4.63;2.20;;;;;;;;;;5134081;27;20460;-64
2023/07/12 08:59:54;;;;;;;3.63;1.93;;;;;;;;;;5124285;27;20499;-64
2023/07/12 09:02:22;;;;;;;2.57;1.80;;;;;;;;;;5132497;27;20494;-64
2023/07/12 09:04:50;;;;;;;3.97;1.80;;;;;;;;;;5133733;27;20766;-64
2023/07/12 09:07:25;;;;;;;3.00;2.33;;;;;;;;;;5134996;27;20473;-64
2023/07/12 09:09:55;;;;;;;2.60;1.43;;;;;;;;;;5136939;27;20509;-64
2023/07/12 09:12:23;;;;;;;4.40;1.90;;;;;;;;;;5129706;27;20495;-64
2023/07/12 09:14:52;;;;;;;3.40;2.30;;;;;;;;;;5123780;27;21017;-64
2023/07/12 09:17:22;;;;;;;5.20;2.27;;;;;;;;;;5135427;27;20449;-64
2023/07/12 09:19:51;;;;;;;3.80;2.80;;;;;;;;;;5129420;27;20460;-64
2023/07/12 09:22:18;;;;;;;4.80;2.50;;;;;;;;;;5133063;27;20445;-64
2023/07/12 09:24:46;;;;;;;3.80;2.50;;;;;;;;;;5135175;27;20445;-64
2023/07/12 09:27:15;;;;;;;2.63;2.43;;;;;;;;;;5135608;27;20536;-64
2023/07/12 09:29:41;;;;;;;5.30;2.50;;;;;;;;;;5114518;27;20474;-64
2023/07/12 09:32:15;;;;;;;5.90;2.20;;;;;;;;;;5133560;27;20871;-63
2023/07/12 09:34:42;;;;;;;4.50;2.37;;;;;;;;;;5132458;27;20455;-63
2023/07/12 09:37:14;;;;;;;5.67;2.70;;;;;;;;;;5122363;27;20522;-63
2023/07/12 09:39:40;;;;;;;2.50;1.93;;;;;;;;;;5129760;27;20766;-63
2023/07/12 09:42:11;;;;;;;4.13;2.47;;;;;;;;;;5132179;27;20469;-63
2023/07/12 09:44:37;;;;;;;4.47;2.20;;;;;;;;;;5130681;27;20465;-64
2023/07/12 09:47:08;;;;;;;1.73;1.50;;;;;;;;;;5134139;27;20513;-64
2023/07/12 09:49:39;;;;;;;3.40;2.30;;;;;;;;;;5137918;27;20552;-63
2023/07/12 09:52:10;;;;;;;3.87;2.13;;;;;;;;;;5130976;27;20510;-64
2023/07/12 09:54:44;;;;;;;4.40;1.57;;;;;;;;;;5137472;28;20505;-64
2023/07/12 09:57:12;;;;;;;2.40;1.63;;;;;;;;;;5124256;28;20554;-64
2023/07/12 09:59:44;;;;;;;5.03;2.30;;;;;;;;;;5143126;27;21003;-64
2023/07/12 10:02:19;;;;;;;3.07;1.63;;;;;;;;;;5127636;27;20453;-63
2023/07/12 10:04:47;;;;;;;3.67;1.80;;;;;;;;;;5138428;27;20512;-64
2023/07/12 10:07:16;;;;;;;5.33;2.10;;;;;;;;;;5133028;28;20544;-63
2023/07/12 10:09:47;;;;;;;6.10;2.10;;;;;;;;;;5127881;28;20449;-63
2023/07/12 10:12:18;;;;;;;3.60;1.73;;;;;;;;;;5133456;27;20516;-63
2023/07/12 10:14:46;;;;;;;5.43;2.20;;;;;;;;;;5139195;27;20452;-63
2023/07/12 10:17:16;;;;;;;5.47;2.00;;;;;;;;;;5128462;27;20469;-63
2023/07/12 10:19:42;;;;;;;2.70;1.77;;;;;;;;;;5135475;27;20579;-63
2023/07/12 10:22:13;;;;;;;5.00;2.07;;;;;;;;;;5135140;27;20488;-64
2023/07/12 10:24:42;;;;;;;4.00;2.00;;;;;;;;;;5128561;27;20487;-64
2023/07/12 10:27:16;;;;;;;3.50;1.93;;;;;;;;;;5127901;27;20445;-64
2023/07/12 10:29:44;;;;;;;4.47;2.33;;;;;;;;;;5129138;27;20484;-64
2023/07/12 10:32:17;;;;;;;3.80;2.10;;;;;;;;;;5128354;27;20567;-64
2023/07/12 10:34:47;;;;;;;6.60;2.43;;;;;;;;;;5126818;27;20953;-64
2023/07/12 10:37:17;;;;;;;4.90;2.40;;;;;;;;;;5141033;27;20449;-65
2023/07/12 10:39:44;;;;;;;4.10;2.17;;;;;;;;;;5133844;27;20553;-64
2023/07/12 10:42:18;;;;;;;6.37;2.10;;;;;;;;;;5136880;27;20514;-64
2023/07/12 10:44:47;;;;;;;8.73;2.57;;;;;;;;;;5139841;27;20452;-64
2023/07/12 10:47:15;;;;;;;5.60;2.57;;;;;;;;;;5137373;27;20509;-64
2023/07/12 10:49:44;;;;;;;4.33;2.53;;;;;;;;;;5132585;27;20449;-64
2023/07/12 10:52:16;;;;;;;4.60;2.70;;;;;;;;;;5134275;27;20982;-64
2023/07/12 10:54:51;;;;;;;8.93;3.03;;;;;;;;;;5138662;27;20464;-64
2023/07/12 10:57:27;;;;;;;3.73;2.27;;;;;;;;;;5134042;27;20517;-65
2023/07/12 11:00:00;;;;;;;8.57;2.80;;;;;;;;;;5139703;27;20456;-64
2023/07/12 11:02:28;;;;;;;5.60;2.30;;;;;;;;;;5134229;27;20473;-64
2023/07/12 11:04:54;;;;;;;3.67;1.87;;;;;;;;;;5133542;27;20479;-64
2023/07/12 11:07:33;;;;;;;5.80;1.80;;;;;;;;;;5134513;27;20480;-64
2023/07/12 11:10:05;;;;;;;4.73;1.70;;;;;;;;;;5150027;27;20486;-64
2023/07/12 11:12:37;;;;;;;5.63;1.70;;;;;;;;;;5130615;27;20523;-64
2023/07/12 11:15:17;;;;;;;4.17;2.10;;;;;;;;;;5139807;27;20477;-63
2023/07/12 11:17:51;;;;;;;5.63;2.07;;;;;;;;;;5126437;27;20454;-63
2023/07/12 11:20:21;;;;;;;7.37;1.90;;;;;;;;;;5141186;27;20460;-63
2023/07/12 11:22:48;;;;;;;5.57;1.80;;;;;;;;;;5135678;27;20491;-63
2023/07/12 11:25:23;;;;;;;4.53;1.90;;;;;;;;;;5140395;27;20481;-63
2023/07/12 11:27:55;;;;;;;5.90;1.70;;;;;;;;;;5127494;27;20450;-63
2023/07/12 11:30:25;;;;;;;4.40;1.90;;;;;;;;;;5135861;27;20786;-63
2023/07/12 11:32:55;;;;;;;3.60;1.93;;;;;;;;;;5125798;27;20449;-64
2023/07/12 11:35:24;;;;;;;5.30;2.03;;;;;;;;;;5137016;27;20476;-63
2023/07/12 11:37:53;;;;;;;4.13;1.63;;;;;;;;;;5128515;27;20453;-63
2023/07/12 11:40:22;;;;;;;4.10;2.00;;;;;;;;;;5141384;27;20583;-64
2023/07/12 11:42:49;;;;;;;4.57;1.83;;;;;;;;;;5138396;27;20449;-64
2023/07/12 11:45:19;;;;;;;4.23;1.93;;;;;;;;;;5126453;27;20445;-64
2023/07/12 11:47:48;;;;;;;6.87;1.87;;;;;;;;;;5136064;27;20456;-63
2023/07/12 11:50:18;;;;;;;3.43;1.63;;;;;;;;;;5133820;27;20454;-63
2023/07/12 11:52:44;;;;;;;4.23;2.23;;;;;;;;;;5133359;27;20540;-63
2023/07/12 11:55:14;;;;;;;3.83;1.57;;;;;;;;;;5129235;27;20477;-63
2023/07/12 11:57:41;;;;;;;5.57;1.40;;;;;;;;;;5132214;27;20459;-63
2023/07/12 12:00:14;;;;;;;5.43;1.77;;;;;;;;;;5140390;27;20449;-63
2023/07/12 12:02:41;;;;;;;3.97;2.00;;;;;;;;;;5136556;27;20511;-63
2023/07/12 12:05:14;;;;;;;4.40;1.80;;;;;;;;;;5126015;27;20575;-63
2023/07/12 12:07:41;;;;;;;4.13;1.97;;;;;;;;;;5138996;27;20500;-63
2023/07/12 12:10:10;;;;;;;3.90;2.00;;;;;;;;;;5136583;27;20441;-63
2023/07/12 12:12:37;;;;;;;3.17;1.60;;;;;;;;;;5131610;27;20545;-63
2023/07/12 12:15:16;;;;;;;4.00;1.80;;;;;;;;;;5134833;27;20477;-63
2023/07/12 12:17:44;;;;;;;5.60;1.70;;;;;;;;;;5134632;27;20469;-63
2023/07/12 12:20:14;;;;;;;5.83;2.30;;;;;;;;;;5136460;27;20449;-63
2023/07/12 12:22:41;;;;;;;3.60;2.30;;;;;;;;;;5127194;27;20446;-63
2023/07/12 12:25:16;;;;;;;2.87;2.33;;;;;;;;;;5133155;27;20670;-63
2023/07/12 12:27:43;;;;;;;4.30;1.80;;;;;;;;;;5141280;27;20975;-63
2023/07/12 12:30:18;;;;;;;5.47;2.20;;;;;;;;;;5141185;27;21017;-63
2023/07/12 12:32:56;;;;;;;3.53;1.80;;;;;;;;;;5139885;27;20481;-64
2023/07/12 12:35:23;;;;;;;5.63;1.83;;;;;;;;;;5133876;27;20466;-63
2023/07/12 12:37:53;;;;;;;3.60;1.70;;;;;;;;;;5139669;27;20985;-63
2023/07/12 12:40:20;;;;;;;3.80;1.47;;;;;;;;;;5123918;27;20553;-63
2023/07/12 12:43:00;;;;;;;5.73;1.80;;;;;;;;;;5140636;27;20509;-63
2023/07/12 12:45:28;;;;;;;4.77;1.77;;;;;;;;;;5133308;27;20965;-63
2023/07/12 12:47:56;;;;;;;2.57;1.63;;;;;;;;;;5124665;27;20463;-63
2023/07/12 12:50:25;;;;;;;4.67;2.10;;;;;;;;;;5138348;27;20473;-63
2023/07/12 12:52:54;;;;;;;4.93;2.23;;;;;;;;;;5129622;27;20570;-65
2023/07/12 12:55:20;;;;;;;3.50;1.50;;;;;;;;;;5137171;27;20829;-63
2023/07/12 12:57:47;;;;;;;3.43;1.83;;;;;;;;;;5139418;27;20476;-63
2023/07/12 13:00:18;;;;;;;5.33;1.57;;;;;;;;;;5133282;27;20530;-63
2023/07/12 13:02:45;;;;;;;4.10;1.70;;;;;;;;;;5126167;27;20488;-64
2023/07/12 13:05:13;;;;;;;3.10;1.87;;;;;;;;;;5142924;27;20452;-63
2023/07/12 13:07:41;;;;;;;2.90;1.53;;;;;;;;;;5127694;27;20447;-63
2023/07/12 13:10:13;;;;;;;4.50;1.80;;;;;;;;;;5139761;27;20453;-63
2023/07/12 13:12:40;;;;;;;6.73;1.90;;;;;;;;;;5132705;27;20480;-63
2023/07/12 13:15:08;;;;;;;4.53;1.60;;;;;;;;;;5131299;27;20803;-63
2023/07/12 13:17:35;;;;;;;2.77;1.00;;;;;;;;;;5119868;27;20453;-63
2023/07/12 13:20:01;;;;;;;4.37;1.60;;;;;;;;;;5126411;27;20488;-63
2023/07/12 13:22:29;;;;;;;5.33;1.80;;;;;;;;;;5131676;27;21061;-63
2023/07/12 13:24:56;;;;;;;4.20;1.67;;;;;;;;;;5123576;27;20534;-63
2023/07/12 13:27:27;;;;;;;9.60;2.27;;;;;;;;;;5127158;27;20457;-63
2023/07/12 13:29:54;;;;;;;6.23;1.60;;;;;;;;;;5120497;27;20500;-63
2023/07/12 13:32:21;;;;;;;4.80;2.13;;;;;;;;;;5133671;27;21470;-63
2023/07/12 13:34:48;;;;;;;4.23;1.53;;;;;;;;;;5132186;27;20469;-63
2023/07/12 13:37:15;;;;;;;2.73;1.50;;;;;;;;;;5132909;27;20493;-63
2023/07/12 13:39:44;;;;;;;4.40;1.30;;;;;;;;;;5133908;27;20489;-63
2023/07/12 13:42:11;;;;;;;2.80;1.40;;;;;;;;;;5132386;27;20487;-63
2023/07/12 13:44:38;;;;;;;3.80;1.60;;;;;;;;;;5132832;27;20481;-64
2023/07/12 13:47:10;;;;;;;3.57;1.53;;;;;;;;;;5130435;28;20453;-65
2023/07/12 13:49:37;;;;;;;2.47;1.37;;;;;;;;;;5130590;27;20465;-65
2023/07/12 13:52:03;;;;;;;2.60;1.30;;;;;;;;;;5127659;27;20612;-65
2023/07/12 13:54:33;;;;;;;2.63;1.27;;;;;;;;;;5133467;28;20516;-65
2023/07/12 13:57:03;;;;;;;2.23;1.30;;;;;;;;;;5126649;27;20454;-64
2023/07/12 13:59:29;;;;;;;2.90;1.57;;;;;;;;;;5136500;27;20532;-64
2023/07/12 14:01:56;;;;;;;3.20;1.00;;;;;;;;;;5124926;28;20532;-64
2023/07/12 14:04:23;;;;;;;3.43;1.40;;;;;;;;;;5138319;27;20840;-64
2023/07/12 14:06:50;;;;;;;2.70;1.43;;;;;;;;;;5133200;27;20538;-64
2023/07/12 14:09:17;;;;;;;2.97;1.47;;;;;;;;;;5138478;28;20540;-64
2023/07/12 14:11:44;;;;;;;4.63;1.30;;;;;;;;;;5137416;28;20480;-64
2023/07/12 14:14:13;;;;;;;3.90;1.40;;;;;;;;;;5138452;27;21131;-64
2023/07/12 14:16:39;;;;;;;6.03;1.53;;;;;;;;;;5132938;28;20467;-64
2023/07/12 14:19:06;;;;;;;3.33;1.37;;;;;;;;;;5138989;28;20717;-64
2023/07/12 14:21:32;;;;;;;4.20;1.43;;;;;;;;;;5133846;27;20733;-64
2023/07/12 14:23:59;;;;;;;3.17;1.40;;;;;;;;;;5127802;28;20450;-64
2023/07/12 14:26:26;;;;;;;2.93;1.03;;;;;;;;;;5137496;28;20481;-64
2023/07/12 14:28:53;;;;;;;2.50;1.23;;;;;;;;;;5137454;27;20456;-64
2023/07/12 14:31:23;;;;;;;4.47;1.30;;;;;;;;;;5139472;27;20476;-65
2023/07/12 14:33:49;;;;;;;3.53;1.67;;;;;;;;;;5127547;28;20447;-64
2023/07/12 14:36:18;;;;;;;3.60;1.20;;;;;;;;;;5137375;28;20957;-64
2023/07/12 14:38:45;;;;;;;3.10;1.40;;;;;;;;;;5136966;27;20495;-64
2023/07/12 14:41:15;;;;;;;3.17;1.40;;;;;;;;;;5133173;27;20457;-64
2023/07/12 14:43:41;;;;;;;4.73;1.40;;;;;;;;;;5139581;28;20529;-64
2023/07/12 14:46:07;;;;;;;6.33;1.50;;;;;;;;;;5138738;27;20533;-63